createdAt,value
2018-03-17T00:01:29.780Z,7.83
2018-03-17T00:03:57.345Z,7.07
2018-03-17T00:06:24.935Z,6.90
2018-03-17T00:08:53.254Z,8.13
2018-03-17T00:11:20.807Z,8.37
2018-03-17T00:13:48.374Z,6.97
2018-03-17T00:16:15.924Z,7.17
2018-03-17T00:18:43.472Z,7.80
2018-03-17T00:21:11.808Z,7.37
2018-03-17T00:23:39.360Z,7.60
2018-03-17T00:26:06.922Z,7.40
2018-03-17T00:28:34.512Z,7.20
2018-03-17T00:31:02.067Z,7.30
2018-03-17T00:33:29.628Z,6.63
2018-03-17T00:35:57.209Z,7.13
2018-03-17T00:38:24.772Z,6.63
2018-03-17T00:40:53.088Z,7.53
2018-03-17T00:43:20.665Z,8.13
2018-03-17T00:45:48.210Z,7.57
2018-03-17T00:48:15.804Z,7.43
2018-03-17T00:50:43.379Z,7.77
2018-03-17T00:53:10.931Z,6.87
2018-03-17T00:55:38.495Z,7.53
2018-03-17T00:58:06.066Z,7.57
2018-03-17T01:00:33.608Z,7.43
2018-03-17T01:03:01.175Z,6.93
2018-03-17T01:05:28.752Z,7.50
2018-03-17T01:07:56.305Z,7.67
2018-03-17T01:10:24.626Z,7.67
2018-03-17T01:12:52.207Z,7.37
2018-03-17T01:15:19.763Z,7.30
2018-03-17T01:17:47.325Z,7.20
2018-03-17T01:20:14.903Z,7.50
2018-03-17T01:22:42.455Z,7.30
2018-03-17T01:25:10.011Z,7.50
2018-03-17T01:27:37.592Z,8.40
2018-03-17T01:30:05.166Z,7.93
2018-03-17T01:32:33.477Z,8.20
2018-03-17T01:35:01.150Z,8.30
2018-03-17T01:37:28.692Z,7.93
2018-03-17T01:39:56.254Z,7.90
2018-03-17T01:42:23.819Z,8.60
2018-03-17T01:44:51.378Z,6.73
2018-03-17T01:47:18.929Z,8.30
2018-03-17T01:49:46.498Z,8.00
2018-03-17T01:52:14.067Z,7.40
2018-03-17T01:54:41.622Z,7.73
2018-03-17T01:57:09.206Z,7.63
2018-03-17T01:59:36.755Z,8.00
2018-03-17T02:02:04.318Z,8.30
2018-03-17T02:04:31.891Z,8.77
2018-03-17T02:06:59.446Z,8.67
2018-03-17T02:09:27.004Z,9.13
2018-03-17T02:11:54.587Z,10.97
2018-03-17T02:14:22.137Z,8.10
2018-03-17T02:16:49.708Z,8.43
2018-03-17T02:19:17.302Z,8.97
2018-03-17T02:21:45.625Z,9.20
2018-03-17T02:24:13.185Z,11.60
2018-03-17T02:26:40.774Z,11.97
2018-03-17T02:29:08.323Z,12.10
2018-03-17T02:31:35.897Z,13.73
2018-03-17T02:34:03.477Z,14.50
2018-03-17T02:36:31.795Z,15.37
2018-03-17T02:38:59.354Z,14.90
2018-03-17T02:41:26.934Z,16.17
2018-03-17T02:44:02.220Z,16.20
2018-03-17T02:46:29.828Z,15.63
2018-03-17T02:48:57.388Z,16.77
2018-03-17T02:51:24.977Z,16.80
2018-03-17T02:53:52.559Z,17.53
2018-03-17T02:56:20.877Z,16.83
2018-03-17T02:58:48.423Z,17.07
2018-03-17T03:01:16.014Z,17.10
2018-03-17T03:03:43.570Z,16.77
2018-03-17T03:06:11.126Z,17.37
2018-03-17T03:08:38.729Z,17.63
2018-03-17T03:11:06.284Z,17.80
2018-03-17T03:13:33.837Z,16.30
2018-03-17T03:16:01.428Z,17.50
2018-03-17T03:18:29.772Z,17.23
2018-03-17T03:20:57.331Z,18.47
2018-03-17T03:23:24.949Z,19.90
2018-03-17T03:25:52.509Z,19.63
2018-03-17T03:28:20.086Z,19.20
2018-03-17T03:30:47.670Z,19.83
2018-03-17T03:33:16.004Z,19.63
2018-03-17T03:35:43.575Z,19.83
2018-03-17T03:38:11.167Z,20.53
2018-03-17T03:40:38.736Z,21.00
2018-03-17T03:43:07.239Z,19.83
2018-03-17T03:45:35.608Z,19.00
2018-03-17T03:48:03.160Z,19.47
2018-03-17T03:50:30.713Z,18.90
2018-03-17T03:52:58.286Z,19.70
2018-03-17T03:55:25.840Z,20.33
2018-03-17T03:57:53.408Z,20.63
2018-03-17T04:00:20.991Z,20.13
2018-03-17T04:02:49.319Z,22.30
2018-03-17T04:05:17.644Z,22.57
2018-03-17T04:07:45.980Z,22.93
2018-03-17T04:10:13.544Z,21.47
2018-03-17T04:12:41.084Z,22.60
2018-03-17T04:15:08.687Z,20.87
2018-03-17T04:17:36.256Z,21.57
2018-03-17T04:20:03.802Z,22.13
2018-03-17T04:22:31.395Z,23.20
2018-03-17T04:24:59.720Z,23.07
2018-03-17T04:27:27.282Z,23.93
2018-03-17T04:29:54.871Z,22.90
2018-03-17T04:32:22.433Z,24.23
2018-03-17T04:34:50.765Z,24.20
2018-03-17T04:37:18.351Z,22.73
2018-03-17T04:39:45.915Z,22.90
2018-03-17T04:42:13.473Z,25.47
2018-03-17T04:44:41.059Z,23.63
2018-03-17T04:47:08.629Z,24.10
2018-03-17T04:49:36.939Z,23.13
2018-03-17T04:52:04.527Z,26.00
2018-03-17T04:54:32.091Z,25.87
2018-03-17T04:56:59.656Z,24.80
2018-03-17T04:59:27.270Z,24.60
2018-03-17T05:01:54.837Z,24.83
2018-03-17T05:04:22.398Z,25.57
2018-03-17T05:06:49.979Z,25.43
2018-03-17T05:09:17.587Z,24.60
2018-03-17T05:11:45.913Z,24.10
2018-03-17T05:14:13.500Z,26.20
2018-03-17T05:16:41.051Z,24.97
2018-03-17T05:19:08.610Z,25.57
2018-03-17T05:21:36.235Z,25.00
2018-03-17T05:24:07.104Z,26.17
2018-03-17T05:26:35.459Z,25.00
2018-03-17T05:29:03.051Z,25.27
2018-03-17T05:31:30.599Z,25.40
2018-03-17T05:34:00.163Z,25.20
2018-03-17T05:36:27.687Z,25.97
2018-03-17T05:38:55.260Z,24.00
2018-03-17T05:41:36.460Z,24.97
2018-03-17T05:44:04.785Z,24.57
2018-03-17T05:46:32.333Z,23.93
2018-03-17T05:48:59.926Z,23.73
2018-03-17T05:51:27.482Z,24.47
2018-03-17T05:53:55.045Z,22.97
2018-03-17T05:56:22.648Z,24.73
2018-03-17T05:58:50.196Z,23.13
2018-03-17T06:01:18.518Z,26.43
2018-03-17T06:03:46.094Z,26.03
2018-03-17T06:06:13.654Z,23.77
2018-03-17T06:08:41.202Z,24.27
2018-03-17T06:11:08.779Z,24.80
2018-03-17T06:13:36.334Z,24.27
2018-03-17T06:16:03.913Z,23.27
2018-03-17T06:18:50.838Z,24.27
2018-03-17T06:21:18.388Z,23.93
2018-03-17T06:23:45.934Z,25.90
2018-03-17T06:26:13.501Z,24.10
2018-03-17T06:28:41.060Z,25.00
2018-03-17T06:31:08.776Z,25.67
2018-03-17T06:33:36.363Z,24.20
2018-03-17T06:36:03.930Z,25.50
2018-03-17T06:38:31.483Z,24.53
2018-03-17T06:40:59.063Z,23.77
2018-03-17T06:43:26.622Z,24.63
2018-03-17T06:45:54.175Z,26.83
2018-03-17T06:48:21.774Z,25.00
2018-03-17T06:50:50.099Z,24.90
2018-03-17T06:53:17.658Z,25.63
2018-03-17T06:55:45.252Z,26.40
2018-03-17T07:01:05.575Z,25.30
2018-03-17T07:03:33.147Z,26.80
2018-03-17T07:06:01.471Z,25.20
2018-03-17T07:08:29.061Z,26.63
2018-03-17T07:10:56.617Z,23.80
2018-03-17T07:13:24.222Z,26.37
2018-03-17T07:15:52.571Z,24.10
2018-03-17T07:18:27.427Z,25.73
2018-03-17T07:20:55.871Z,25.20
2018-03-17T07:23:26.781Z,24.20
2018-03-17T07:25:54.345Z,26.23
2018-03-17T07:28:21.945Z,25.00
2018-03-17T07:30:49.524Z,25.80
2018-03-17T07:33:17.851Z,25.63
2018-03-17T07:35:45.439Z,25.30
2018-03-17T07:38:13.009Z,26.00
2018-03-17T07:40:40.564Z,24.03
2018-03-17T07:43:08.152Z,26.10
2018-03-17T07:45:36.480Z,26.80
2018-03-17T07:48:04.041Z,28.33
2018-03-17T07:50:32.398Z,27.87
2018-03-17T07:52:59.967Z,27.07
2018-03-17T07:55:27.533Z,26.70
2018-03-17T07:57:55.123Z,26.93
2018-03-17T08:00:22.671Z,26.97
2018-03-17T08:02:50.247Z,25.13
2018-03-17T08:05:17.936Z,25.30
2018-03-17T08:07:46.261Z,25.70
2018-03-17T08:10:13.821Z,26.20
2018-03-17T08:12:41.391Z,27.60
2018-03-17T08:15:08.957Z,26.30
2018-03-17T08:17:36.514Z,26.90
2018-03-17T08:20:04.105Z,26.63
2018-03-17T08:22:32.427Z,25.77
2018-03-17T08:25:00.040Z,25.60
2018-03-17T08:27:27.584Z,25.50
2018-03-17T08:29:55.143Z,26.20
2018-03-17T08:32:22.713Z,24.37
2018-03-17T08:34:50.333Z,22.80
2018-03-17T08:37:17.899Z,22.77
2018-03-17T08:39:45.480Z,23.43
2018-03-17T08:42:13.054Z,23.60
2018-03-17T08:44:40.604Z,23.80
2018-03-17T08:47:08.179Z,22.73
2018-03-17T08:49:35.764Z,24.10
2018-03-17T08:52:04.092Z,23.67
2018-03-17T08:54:31.670Z,23.50
2018-03-17T08:56:59.252Z,22.50
2018-03-17T08:59:27.586Z,23.20
2018-03-17T09:01:55.129Z,22.50
2018-03-17T09:04:22.712Z,22.50
2018-03-17T09:06:50.272Z,23.40
2018-03-17T09:09:17.820Z,23.50
2018-03-17T09:11:45.412Z,23.33
2018-03-17T09:14:12.957Z,22.67
2018-03-17T09:16:40.511Z,23.07
2018-03-17T09:19:08.099Z,21.67
2018-03-17T09:21:35.659Z,22.63
2018-03-17T09:24:03.204Z,22.47
2018-03-17T09:26:30.790Z,22.47
2018-03-17T09:28:59.120Z,21.73
2018-03-17T09:31:26.703Z,22.20
2018-03-17T09:33:54.293Z,22.60
2018-03-17T09:36:22.625Z,22.17
2018-03-17T09:38:50.181Z,21.27
2018-03-17T09:41:17.756Z,21.83
2018-03-17T09:43:45.320Z,22.20
2018-03-17T09:46:12.876Z,19.60
2018-03-17T09:48:40.464Z,20.63
2018-03-17T09:51:08.024Z,21.30
2018-03-17T09:53:35.587Z,20.17
2018-03-17T09:56:03.193Z,22.00
2018-03-17T09:58:30.744Z,20.73
2018-03-17T10:00:58.333Z,21.60
2018-03-17T10:03:26.672Z,20.53
2018-03-17T10:05:54.230Z,21.17
2018-03-17T10:08:21.792Z,22.27
2018-03-17T10:10:49.485Z,22.27
2018-03-17T10:13:17.089Z,23.83
2018-03-17T10:15:44.622Z,22.43
2018-03-17T10:18:12.204Z,23.03
2018-03-17T10:20:39.768Z,23.70
2018-03-17T10:23:07.312Z,20.63
2018-03-17T10:25:34.904Z,21.60
2018-03-17T10:28:02.475Z,23.87
2018-03-17T10:30:30.799Z,22.93
2018-03-17T10:32:58.393Z,22.43
2018-03-17T10:35:26.732Z,23.40
2018-03-17T10:37:54.294Z,23.93
2018-03-17T10:40:21.872Z,22.50
2018-03-17T10:42:49.446Z,23.93
2018-03-17T10:45:17.004Z,22.93
2018-03-17T10:47:44.603Z,21.30
2018-03-17T10:50:12.195Z,22.63
2018-03-17T10:52:39.771Z,22.10
2018-03-17T10:55:07.346Z,23.47
2018-03-17T10:57:34.900Z,22.30
2018-03-17T11:00:02.475Z,23.73
2018-03-17T11:02:32.861Z,22.60
2018-03-17T11:05:01.212Z,23.63
2018-03-17T11:07:28.797Z,22.40
2018-03-17T11:09:56.384Z,22.80
2018-03-17T11:12:23.950Z,24.73
2018-03-17T11:14:51.511Z,23.70
2018-03-17T11:17:19.109Z,21.87
2018-03-17T11:19:46.674Z,22.67
2018-03-17T11:22:14.231Z,22.43
2018-03-17T11:24:41.824Z,24.80
2018-03-17T11:27:09.383Z,22.10
2018-03-17T11:29:36.941Z,23.23
2018-03-17T11:32:04.541Z,22.23
2018-03-17T11:34:32.096Z,21.43
2018-03-17T11:36:59.656Z,23.00
2018-03-17T11:39:27.238Z,21.73
2018-03-17T11:41:55.590Z,22.07
2018-03-17T11:44:23.148Z,22.50
2018-03-17T11:46:50.736Z,21.60
2018-03-17T11:49:19.054Z,22.17
2018-03-17T11:51:46.611Z,22.70
2018-03-17T11:54:14.194Z,20.50
2018-03-17T11:56:41.767Z,21.13
2018-03-17T11:59:09.345Z,21.67
2018-03-17T12:01:36.934Z,21.40
2018-03-17T12:04:04.510Z,20.80
2018-03-17T12:06:32.067Z,21.70
2018-03-17T12:08:59.652Z,22.67
2018-03-17T12:11:27.208Z,22.47
2018-03-17T12:13:54.778Z,20.17
2018-03-17T12:16:22.365Z,20.70
2018-03-17T12:18:49.939Z,22.20
2018-03-17T12:21:17.492Z,21.03
2018-03-17T12:23:45.079Z,22.23
2018-03-17T12:26:12.655Z,20.50
2018-03-17T12:28:40.227Z,20.57
2018-03-17T12:31:07.826Z,21.83
2018-03-17T12:33:35.379Z,22.57
2018-03-17T12:36:04.571Z,20.37
2018-03-17T12:38:32.165Z,22.03
2018-03-17T12:41:00.520Z,21.80
2018-03-17T12:43:28.071Z,20.10
2018-03-17T12:45:55.651Z,21.10
2018-03-17T12:48:23.213Z,21.67
2018-03-17T12:50:50.761Z,20.07
2018-03-17T12:53:18.359Z,22.37
2018-03-17T12:55:45.914Z,20.47
2018-03-17T12:58:14.234Z,20.17
2018-03-17T13:00:41.854Z,20.47
2018-03-17T13:03:10.189Z,19.37
2018-03-17T13:05:37.757Z,21.00
2018-03-17T13:08:05.346Z,20.73
2018-03-17T13:10:33.694Z,19.70
2018-03-17T13:13:01.252Z,19.43
2018-03-17T13:15:28.851Z,19.17
2018-03-17T13:17:57.188Z,19.17
2018-03-17T13:20:24.730Z,19.80
2018-03-17T13:23:04.290Z,20.50
2018-03-17T13:25:31.855Z,19.53
2018-03-17T13:28:11.421Z,20.43
2018-03-17T13:30:39.770Z,19.13
2018-03-17T13:33:07.337Z,20.30
2018-03-17T13:35:46.705Z,20.27
2018-03-17T13:38:15.036Z,20.97
2018-03-17T13:40:42.609Z,21.20
2018-03-17T13:43:10.203Z,20.70
2018-03-17T13:45:38.543Z,21.67
2018-03-17T13:48:06.111Z,19.53
2018-03-17T13:50:33.711Z,20.70
2018-03-17T13:53:01.276Z,21.13
2018-03-17T13:55:28.829Z,22.40
2018-03-17T13:58:11.290Z,21.30
2018-03-17T14:00:39.617Z,20.70
2018-03-17T14:03:07.932Z,20.17
2018-03-17T14:05:35.516Z,22.73
2018-03-17T14:08:03.080Z,22.03
2018-03-17T14:10:30.879Z,21.70
2018-03-17T14:12:59.227Z,23.27
2018-03-17T14:15:26.782Z,21.60
2018-03-17T14:17:54.338Z,23.33
2018-03-17T14:20:21.956Z,22.17
2018-03-17T14:22:49.515Z,23.13
2018-03-17T14:25:17.107Z,21.80
2018-03-17T14:27:44.745Z,23.37
2018-03-17T14:30:13.035Z,20.80
2018-03-17T14:32:40.592Z,23.80
2018-03-17T14:35:28.987Z,21.67
2018-03-17T14:37:56.544Z,22.77
2018-03-17T14:40:24.088Z,23.80
2018-03-17T14:42:51.676Z,23.60
2018-03-17T14:45:37.649Z,24.00
2018-03-17T14:48:05.266Z,22.53
2018-03-17T14:50:32.826Z,23.47
2018-03-17T14:53:00.395Z,24.47
2018-03-17T14:55:27.988Z,25.57
2018-03-17T14:57:55.551Z,23.03
2018-03-17T15:00:23.182Z,26.33
2018-03-17T15:02:50.770Z,24.73
2018-03-17T15:05:18.351Z,25.13
2018-03-17T15:07:45.929Z,25.40
2018-03-17T15:10:14.271Z,24.77
2018-03-17T15:12:41.851Z,24.77
2018-03-17T15:15:09.402Z,25.23
2018-03-17T15:17:36.987Z,23.83
2018-03-17T15:20:05.318Z,23.63
2018-03-17T15:22:32.872Z,22.70
2018-03-17T15:25:00.462Z,25.50
2018-03-17T15:27:28.024Z,23.43
2018-03-17T15:29:55.580Z,25.10
2018-03-17T15:32:23.170Z,23.63
2018-03-17T15:34:50.744Z,23.43
2018-03-17T15:37:18.349Z,24.87
2018-03-17T15:39:45.938Z,24.50
2018-03-17T15:42:14.282Z,23.93
2018-03-17T15:44:42.642Z,22.60
2018-03-17T15:47:10.235Z,23.83
2018-03-17T15:49:37.796Z,25.40
2018-03-17T15:52:05.359Z,23.60
2018-03-17T15:54:34.893Z,24.47
2018-03-17T15:57:03.231Z,23.73
2018-03-17T15:59:30.786Z,23.93
2018-03-17T16:01:58.378Z,25.47
2018-03-17T16:04:25.932Z,24.63
2018-03-17T16:06:53.499Z,23.13
2018-03-17T16:09:21.072Z,24.00
2018-03-17T16:11:48.629Z,21.93
2018-03-17T16:14:16.184Z,24.60
2018-03-17T16:16:43.767Z,24.70
2018-03-17T16:19:12.081Z,23.57
2018-03-17T16:21:39.642Z,25.80
2018-03-17T16:24:07.219Z,22.83
2018-03-17T16:26:34.783Z,30.13
2018-03-17T16:29:02.340Z,23.00
2018-03-17T16:31:29.932Z,25.73
2018-03-17T16:33:57.478Z,26.23
2018-03-17T16:36:25.036Z,23.73
2018-03-17T16:38:52.624Z,22.57
2018-03-17T16:41:20.943Z,32.63
2018-03-17T16:43:48.507Z,28.07
2018-03-17T16:46:16.096Z,25.57
2018-03-17T16:48:43.657Z,25.20
2018-03-17T16:51:11.224Z,22.00
2018-03-17T16:53:38.831Z,24.70
2018-03-17T16:56:06.392Z,22.00
2018-03-17T16:58:33.947Z,22.00
2018-03-17T17:01:01.538Z,22.90
2018-03-17T17:03:29.112Z,27.30
2018-03-17T17:05:56.683Z,23.10
2018-03-17T17:08:24.315Z,21.37
2018-03-17T17:10:51.886Z,31.87
2018-03-17T17:13:19.446Z,24.07
2018-03-17T17:15:47.039Z,26.00
2018-03-17T17:18:14.656Z,25.30
2018-03-17T17:20:42.219Z,26.60
2018-03-17T17:23:09.810Z,27.43
2018-03-17T17:25:37.370Z,23.10
2018-03-17T17:28:04.978Z,26.77
2018-03-17T17:30:32.579Z,26.27
2018-03-17T17:33:00.154Z,21.93
2018-03-17T17:35:27.724Z,20.10
2018-03-17T17:37:55.319Z,28.50
2018-03-17T17:40:22.875Z,22.67
2018-03-17T17:42:50.433Z,20.77
2018-03-17T17:45:18.027Z,22.30
2018-03-17T17:47:45.597Z,21.30
2018-03-17T17:50:13.163Z,21.20
2018-03-17T17:52:41.525Z,21.17
2018-03-17T17:55:09.099Z,23.50
2018-03-17T17:57:37.437Z,20.40
2018-03-17T18:00:05.044Z,21.90
2018-03-17T18:02:32.608Z,23.50
2018-03-17T18:05:00.949Z,21.67
2018-03-17T18:07:28.532Z,28.60
2018-03-17T18:09:56.108Z,20.77
2018-03-17T18:12:23.682Z,25.60
2018-03-17T18:14:51.414Z,22.70
2018-03-17T18:17:19.002Z,22.43
2018-03-17T18:19:46.575Z,41.93
2018-03-17T18:22:14.157Z,42.50
2018-03-17T18:24:41.744Z,39.70
2018-03-17T18:27:09.324Z,31.73
2018-03-17T18:29:36.928Z,32.23
2018-03-17T18:32:05.274Z,37.50
2018-03-17T18:34:32.826Z,32.30
2018-03-17T18:37:00.408Z,31.43
2018-03-17T18:39:27.964Z,31.83
2018-03-17T18:41:55.536Z,30.87
2018-03-17T18:44:23.121Z,35.00
2018-03-17T18:46:50.682Z,26.30
2018-03-17T18:49:18.278Z,31.85
2018-03-17T18:51:45.861Z,24.23
2018-03-17T18:54:13.428Z,32.03
2018-03-17T18:56:40.987Z,30.65
2018-03-17T18:59:08.593Z,27.87
2018-03-17T19:01:36.173Z,27.13
2018-03-17T19:04:03.742Z,27.87
2018-03-17T19:06:31.331Z,26.90
2018-03-17T19:08:58.909Z,25.67
2018-03-17T19:11:26.478Z,20.67
2018-03-17T19:13:54.838Z,22.37
2018-03-17T19:16:22.439Z,29.42
2018-03-17T19:18:50.017Z,27.13
2018-03-17T19:21:17.626Z,30.73
2018-03-17T19:23:45.964Z,55.92
2018-03-17T19:26:13.530Z,27.80
2018-03-17T19:28:41.137Z,29.90
2018-03-17T19:31:09.471Z,27.20
2018-03-17T19:33:37.048Z,24.80
2018-03-17T19:36:04.671Z,49.20
2018-03-17T19:38:32.686Z,27.77
2018-03-17T19:41:00.253Z,26.30
2018-03-17T19:43:27.854Z,31.92
2018-03-17T19:45:55.419Z,26.03
2018-03-17T19:48:23.004Z,31.00
2018-03-17T19:51:01.717Z,29.40
2018-03-17T19:53:32.816Z,24.42
2018-03-17T19:56:02.390Z,26.20
2018-03-17T19:58:51.478Z,26.90
2018-03-17T20:01:19.870Z,26.08
2018-03-17T20:03:48.196Z,35.30
2018-03-17T20:06:37.594Z,28.73
2018-03-17T20:09:05.145Z,29.00
2018-03-17T20:11:32.715Z,25.77
2018-03-17T20:14:01.244Z,25.40
2018-03-17T20:16:28.826Z,27.50
2018-03-17T20:18:56.395Z,28.60
2018-03-17T20:21:23.999Z,27.40
2018-03-17T20:23:57.915Z,38.47
2018-03-17T20:26:26.292Z,35.70
2018-03-17T20:28:54.652Z,25.73
2018-03-17T20:31:22.226Z,22.92
2018-03-17T20:33:49.822Z,25.10
2018-03-17T20:36:17.388Z,24.90
2018-03-17T20:38:44.954Z,24.80
2018-03-17T20:41:12.532Z,26.43
2018-03-17T20:43:40.091Z,25.65
2018-03-17T20:46:07.676Z,25.12
2018-03-17T20:48:35.268Z,31.08
2018-03-17T20:51:03.609Z,23.23
2018-03-17T20:53:31.175Z,47.35
2018-03-17T20:55:58.763Z,24.42
2018-03-17T20:58:27.112Z,49.73
2018-03-17T21:00:54.681Z,37.85
2018-03-17T21:03:22.275Z,52.08
2018-03-17T21:05:49.835Z,32.65
2018-03-17T21:08:17.392Z,39.30
2018-03-17T21:10:44.982Z,53.28
2018-03-17T21:13:12.560Z,27.58
2018-03-17T21:15:40.139Z,25.73
2018-03-17T21:18:07.732Z,29.05
2018-03-17T21:20:35.291Z,37.45
2018-03-17T21:23:03.632Z,46.30
2018-03-17T21:25:31.241Z,26.08
2018-03-17T21:27:58.820Z,36.35
2018-03-17T21:30:26.391Z,35.35
2018-03-17T21:32:54.750Z,39.85
2018-03-17T21:35:25.471Z,43.70
2018-03-17T21:37:53.039Z,33.08
2018-03-17T21:40:20.623Z,26.02
2018-03-17T21:42:48.240Z,29.65
2018-03-17T21:45:16.577Z,27.27
2018-03-17T21:47:44.188Z,27.17
2018-03-17T21:50:12.517Z,25.52
2018-03-17T21:52:40.095Z,25.10
2018-03-17T21:55:07.696Z,27.23
2018-03-17T21:57:35.282Z,25.20
2018-03-17T22:00:02.847Z,25.50
2018-03-17T22:02:30.450Z,26.30
2018-03-17T22:04:58.020Z,25.37
2018-03-17T22:07:26.363Z,25.40
2018-03-17T22:09:53.962Z,26.20
2018-03-17T22:12:22.292Z,27.83
2018-03-17T22:14:49.855Z,26.15
2018-03-17T22:17:17.448Z,26.85
2018-03-17T22:19:45.028Z,27.17
2018-03-17T22:22:13.372Z,27.83
2018-03-17T22:24:40.967Z,27.17
2018-03-17T22:27:09.316Z,29.23
2018-03-17T22:29:36.888Z,27.08
2018-03-17T22:32:05.252Z,26.85
2018-03-17T22:34:32.816Z,25.77
2018-03-17T22:37:00.381Z,26.80
2018-03-17T22:39:28.012Z,27.87
2018-03-17T22:41:55.575Z,27.27
2018-03-17T22:44:23.140Z,25.75
2018-03-17T22:46:50.735Z,25.27
2018-03-17T22:49:18.321Z,26.05
2018-03-17T22:51:45.890Z,27.27
2018-03-17T22:54:13.494Z,28.80
2018-03-17T22:56:41.071Z,25.75
2018-03-17T22:59:08.639Z,27.27
2018-03-17T23:01:36.231Z,25.70
2018-03-17T23:04:04.086Z,27.40
2018-03-17T23:06:32.423Z,26.08
2018-03-17T23:09:00.028Z,29.75
2018-03-17T23:11:28.375Z,25.35
2018-03-17T23:13:55.939Z,25.73
2018-03-17T23:16:23.543Z,28.77
2018-03-17T23:18:51.507Z,28.52
2018-03-17T23:21:19.103Z,25.67
2018-03-17T23:23:46.703Z,27.40
2018-03-17T23:26:14.261Z,25.60
2018-03-17T23:28:42.617Z,30.90
2018-03-17T23:31:10.231Z,30.40
2018-03-17T23:33:37.864Z,26.80
2018-03-17T23:36:05.434Z,27.23
2018-03-17T23:38:39.901Z,26.75
2018-03-17T23:41:07.480Z,37.92
2018-03-17T23:43:35.064Z,26.48
2018-03-17T23:46:02.681Z,36.25
2018-03-17T23:48:30.240Z,26.40
2018-03-17T23:50:57.809Z,24.37
2018-03-17T23:53:25.420Z,26.20
2018-03-17T23:55:53.851Z,29.00
2018-03-17T23:58:21.457Z,27.17
